sensor_id;sensor_type;location;lat;lon;timestamp;temperature;humidity
20102;DHT22;10210;52.284;9.892;2022-12-29T00:02:24;12.00;99.90
20102;DHT22;10210;52.284;9.892;2022-12-29T00:04:50;12.00;99.90
20102;DHT22;10210;52.284;9.892;2022-12-29T00:07:16;12.00;99.90
20102;DHT22;10210;52.284;9.892;2022-12-29T00:09:42;12.00;99.90
20102;DHT22;10210;52.284;9.892;2022-12-29T00:12:08;12.00;99.90
20102;DHT22;10210;52.284;9.892;2022-12-29T00:14:34;12.00;99.90
20102;DHT22;10210;52.284;9.892;2022-12-29T00:17:18;12.00;99.90
20102;DHT22;10210;52.284;9.892;2022-12-29T00:19:44;12.00;99.90
20102;DHT22;10210;52.284;9.892;2022-12-29T00:22:28;12.00;99.90
20102;DHT22;10210;52.284;9.892;2022-12-29T00:25:12;12.00;99.90
20102;DHT22;10210;52.284;9.892;2022-12-29T00:27:58;12.00;99.90
20102;DHT22;10210;52.284;9.892;2022-12-29T00:30:42;12.10;99.90
20102;DHT22;10210;52.284;9.892;2022-12-29T00:33:32;12.10;99.90
20102;DHT22;10210;52.284;9.892;2022-12-29T00:36:24;12.10;99.90
20102;DHT22;10210;52.284;9.892;2022-12-29T00:38:57;12.10;99.90
20102;DHT22;10210;52.284;9.892;2022-12-29T00:41:54;12.10;99.90
20102;DHT22;10210;52.284;9.892;2022-12-29T00:44:38;12.10;99.90
20102;DHT22;10210;52.284;9.892;2022-12-29T00:47:04;12.10;99.90
20102;DHT22;10210;52.284;9.892;2022-12-29T00:49:30;12.20;99.90
20102;DHT22;10210;52.284;9.892;2022-12-29T00:54:30;12.20;99.90
20102;DHT22;10210;52.284;9.892;2022-12-29T00:56:56;12.20;99.90
20102;DHT22;10210;52.284;9.892;2022-12-29T00:59:22;12.20;99.90
20102;DHT22;10210;52.284;9.892;2022-12-29T01:01:50;12.30;99.90
20102;DHT22;10210;52.284;9.892;2022-12-29T01:04:18;12.30;99.90
20102;DHT22;10210;52.284;9.892;2022-12-29T01:06:45;12.30;99.90
20102;DHT22;10210;52.284;9.892;2022-12-29T01:09:11;12.40;99.90
20102;DHT22;10210;52.284;9.892;2022-12-29T01:11:56;12.30;99.90
20102;DHT22;10210;52.284;9.892;2022-12-29T01:14:22;12.30;99.90
20102;DHT22;10210;52.284;9.892;2022-12-29T01:16:48;12.30;99.90
20102;DHT22;10210;52.284;9.892;2022-12-29T01:19:15;12.40;99.90
20102;DHT22;10210;52.284;9.892;2022-12-29T01:21:41;12.40;99.90
20102;DHT22;10210;52.284;9.892;2022-12-29T01:24:07;12.40;99.90
20102;DHT22;10210;52.284;9.892;2022-12-29T01:26:33;12.40;99.90
20102;DHT22;10210;52.284;9.892;2022-12-29T01:28:58;12.40;99.90
20102;DHT22;10210;52.284;9.892;2022-12-29T01:31:24;12.40;99.90
20102;DHT22;10210;52.284;9.892;2022-12-29T01:33:50;12.40;99.90
20102;DHT22;10210;52.284;9.892;2022-12-29T01:36:18;12.40;99.90
20102;DHT22;10210;52.284;9.892;2022-12-29T01:38:45;12.40;99.90
20102;DHT22;10210;52.284;9.892;2022-12-29T01:41:13;12.40;99.90
20102;DHT22;10210;52.284;9.892;2022-12-29T01:43:50;12.40;99.90
20102;DHT22;10210;52.284;9.892;2022-12-29T01:46:30;12.40;99.90
20102;DHT22;10210;52.284;9.892;2022-12-29T01:51:35;12.40;99.90
20102;DHT22;10210;52.284;9.892;2022-12-29T01:54:43;12.40;99.90
20102;DHT22;10210;52.284;9.892;2022-12-29T01:57:29;12.30;99.90
20102;DHT22;10210;52.284;9.892;2022-12-29T02:00:05;12.40;99.90
20102;DHT22;10210;52.284;9.892;2022-12-29T02:02:34;12.30;99.90
20102;DHT22;10210;52.284;9.892;2022-12-29T02:05:07;12.30;99.90
20102;DHT22;10210;52.284;9.892;2022-12-29T02:07:41;12.30;99.90
20102;DHT22;10210;52.284;9.892;2022-12-29T02:10:08;12.30;99.90
20102;DHT22;10210;52.284;9.892;2022-12-29T02:12:34;12.30;99.90
20102;DHT22;10210;52.284;9.892;2022-12-29T02:15:02;12.20;99.90
20102;DHT22;10210;52.284;9.892;2022-12-29T02:29:49;12.20;99.90
20102;DHT22;10210;52.284;9.892;2022-12-29T02:35:35;12.20;99.90
20102;DHT22;10210;52.284;9.892;2022-12-29T02:44:11;12.30;99.90
20102;DHT22;10210;52.284;9.892;2022-12-29T02:49:45;12.40;99.90
20102;DHT22;10210;52.284;9.892;2022-12-29T02:52:18;12.40;99.90
20102;DHT22;10210;52.284;9.892;2022-12-29T02:54:53;12.50;99.90
20102;DHT22;10210;52.284;9.892;2022-12-29T02:59:54;12.60;99.90
20102;DHT22;10210;52.284;9.892;2022-12-29T03:08:49;12.70;99.90
20102;DHT22;10210;52.284;9.892;2022-12-29T03:11:41;12.70;99.90
20102;DHT22;10210;52.284;9.892;2022-12-29T03:14:59;12.70;99.90
20102;DHT22;10210;52.284;9.892;2022-12-29T03:17:51;12.80;99.90
20102;DHT22;10210;52.284;9.892;2022-12-29T03:20:26;12.80;99.90
20102;DHT22;10210;52.284;9.892;2022-12-29T03:23:01;12.80;99.90
20102;DHT22;10210;52.284;9.892;2022-12-29T03:25:35;12.80;99.90
20102;DHT22;10210;52.284;9.892;2022-12-29T03:28:09;12.80;99.90
20102;DHT22;10210;52.284;9.892;2022-12-29T03:30:38;12.80;99.90
20102;DHT22;10210;52.284;9.892;2022-12-29T03:33:10;12.80;99.90
20102;DHT22;10210;52.284;9.892;2022-12-29T03:35:42;12.80;99.90
20102;DHT22;10210;52.284;9.892;2022-12-29T03:41:20;12.80;99.90
20102;DHT22;10210;52.284;9.892;2022-12-29T03:43:49;12.80;99.90
20102;DHT22;10210;52.284;9.892;2022-12-29T03:46:14;12.80;99.90
20102;DHT22;10210;52.284;9.892;2022-12-29T03:48:40;12.80;99.90
20102;DHT22;10210;52.284;9.892;2022-12-29T03:51:06;12.80;99.90
20102;DHT22;10210;52.284;9.892;2022-12-29T03:53:31;12.80;99.90
20102;DHT22;10210;52.284;9.892;2022-12-29T03:55:57;12.80;99.90
20102;DHT22;10210;52.284;9.892;2022-12-29T03:58:22;12.70;99.90
20102;DHT22;10210;52.284;9.892;2022-12-29T04:00:48;12.70;99.90
20102;DHT22;10210;52.284;9.892;2022-12-29T04:03:14;12.70;99.90
20102;DHT22;10210;52.284;9.892;2022-12-29T04:05:39;12.70;99.90
20102;DHT22;10210;52.284;9.892;2022-12-29T04:08:05;12.70;99.90
20102;DHT22;10210;52.284;9.892;2022-12-29T04:10:31;12.70;99.90
20102;DHT22;10210;52.284;9.892;2022-12-29T04:12:56;12.70;99.90
20102;DHT22;10210;52.284;9.892;2022-12-29T04:15:22;12.70;99.90
20102;DHT22;10210;52.284;9.892;2022-12-29T04:17:49;12.70;99.90
20102;DHT22;10210;52.284;9.892;2022-12-29T04:20:16;12.70;99.90
20102;DHT22;10210;52.284;9.892;2022-12-29T04:23:02;12.80;99.90
20102;DHT22;10210;52.284;9.892;2022-12-29T04:25:29;12.80;99.90
20102;DHT22;10210;52.284;9.892;2022-12-29T04:27:55;12.80;99.90
20102;DHT22;10210;52.284;9.892;2022-12-29T04:30:21;12.80;99.90
20102;DHT22;10210;52.284;9.892;2022-12-29T04:32:47;12.90;99.90
20102;DHT22;10210;52.284;9.892;2022-12-29T04:35:13;12.90;99.90
20102;DHT22;10210;52.284;9.892;2022-12-29T04:37:39;12.90;99.90
20102;DHT22;10210;52.284;9.892;2022-12-29T04:40:05;12.90;99.90
20102;DHT22;10210;52.284;9.892;2022-12-29T04:42:31;13.00;99.90
20102;DHT22;10210;52.284;9.892;2022-12-29T04:44:56;13.00;99.90
20102;DHT22;10210;52.284;9.892;2022-12-29T04:47:22;13.10;99.90
20102;DHT22;10210;52.284;9.892;2022-12-29T04:49:49;13.10;99.90
20102;DHT22;10210;52.284;9.892;2022-12-29T04:52:14;13.10;99.90
20102;DHT22;10210;52.284;9.892;2022-12-29T04:54:40;13.10;99.90
20102;DHT22;10210;52.284;9.892;2022-12-29T04:57:05;13.20;99.90
20102;DHT22;10210;52.284;9.892;2022-12-29T04:59:31;13.20;99.90
20102;DHT22;10210;52.284;9.892;2022-12-29T05:01:57;13.20;99.90
20102;DHT22;10210;52.284;9.892;2022-12-29T05:04:22;13.30;99.90
20102;DHT22;10210;52.284;9.892;2022-12-29T05:06:49;13.30;99.90
20102;DHT22;10210;52.284;9.892;2022-12-29T05:09:14;13.40;99.90
20102;DHT22;10210;52.284;9.892;2022-12-29T05:11:40;13.40;99.90
20102;DHT22;10210;52.284;9.892;2022-12-29T05:14:05;13.50;99.90
20102;DHT22;10210;52.284;9.892;2022-12-29T05:16:31;13.50;99.90
20102;DHT22;10210;52.284;9.892;2022-12-29T05:18:57;13.50;99.90
20102;DHT22;10210;52.284;9.892;2022-12-29T05:21:22;13.50;99.90
20102;DHT22;10210;52.284;9.892;2022-12-29T05:23:48;13.50;99.90
20102;DHT22;10210;52.284;9.892;2022-12-29T05:26:14;13.60;99.90
20102;DHT22;10210;52.284;9.892;2022-12-29T05:28:40;13.60;99.90
20102;DHT22;10210;52.284;9.892;2022-12-29T05:31:06;13.60;99.90
20102;DHT22;10210;52.284;9.892;2022-12-29T05:33:32;13.60;99.90
20102;DHT22;10210;52.284;9.892;2022-12-29T05:36:06;13.60;99.90
20102;DHT22;10210;52.284;9.892;2022-12-29T05:38:33;13.60;99.90
20102;DHT22;10210;52.284;9.892;2022-12-29T05:41:00;13.60;99.90
20102;DHT22;10210;52.284;9.892;2022-12-29T05:43:25;13.70;99.90
20102;DHT22;10210;52.284;9.892;2022-12-29T05:45:52;13.70;99.90
20102;DHT22;10210;52.284;9.892;2022-12-29T05:48:18;13.70;99.90
20102;DHT22;10210;52.284;9.892;2022-12-29T05:50:48;13.70;99.90
20102;DHT22;10210;52.284;9.892;2022-12-29T05:53:14;13.70;99.90
20102;DHT22;10210;52.284;9.892;2022-12-29T05:55:40;13.70;99.90
20102;DHT22;10210;52.284;9.892;2022-12-29T05:58:06;13.70;99.90
20102;DHT22;10210;52.284;9.892;2022-12-29T06:00:31;13.70;99.90
20102;DHT22;10210;52.284;9.892;2022-12-29T06:02:58;13.70;99.90
20102;DHT22;10210;52.284;9.892;2022-12-29T06:05:23;13.70;99.90
20102;DHT22;10210;52.284;9.892;2022-12-29T06:07:49;13.70;99.90
20102;DHT22;10210;52.284;9.892;2022-12-29T06:10:15;13.60;99.90
20102;DHT22;10210;52.284;9.892;2022-12-29T06:12:41;13.60;99.90
20102;DHT22;10210;52.284;9.892;2022-12-29T06:15:07;13.60;99.90
20102;DHT22;10210;52.284;9.892;2022-12-29T06:17:33;13.50;99.90
20102;DHT22;10210;52.284;9.892;2022-12-29T06:19:59;13.50;99.90
20102;DHT22;10210;52.284;9.892;2022-12-29T06:22:24;13.50;99.90
20102;DHT22;10210;52.284;9.892;2022-12-29T06:24:50;13.50;99.90
20102;DHT22;10210;52.284;9.892;2022-12-29T06:27:16;13.40;99.90
20102;DHT22;10210;52.284;9.892;2022-12-29T06:29:41;13.40;99.90
20102;DHT22;10210;52.284;9.892;2022-12-29T06:32:08;13.40;99.90
20102;DHT22;10210;52.284;9.892;2022-12-29T06:34:34;13.40;99.90
20102;DHT22;10210;52.284;9.892;2022-12-29T06:37:00;13.40;99.90
20102;DHT22;10210;52.284;9.892;2022-12-29T06:39:27;13.30;99.90
20102;DHT22;10210;52.284;9.892;2022-12-29T06:41:53;13.30;99.90
20102;DHT22;10210;52.284;9.892;2022-12-29T06:44:22;13.20;99.90
20102;DHT22;10210;52.284;9.892;2022-12-29T06:46:48;13.30;99.90
20102;DHT22;10210;52.284;9.892;2022-12-29T06:49:14;13.20;99.90
20102;DHT22;10210;52.284;9.892;2022-12-29T06:51:41;13.20;99.90
20102;DHT22;10210;52.284;9.892;2022-12-29T06:54:07;13.30;99.90
20102;DHT22;10210;52.284;9.892;2022-12-29T06:56:32;13.30;99.90
20102;DHT22;10210;52.284;9.892;2022-12-29T06:58:58;13.20;99.90
20102;DHT22;10210;52.284;9.892;2022-12-29T07:01:27;13.30;99.90
20102;DHT22;10210;52.284;9.892;2022-12-29T07:03:52;13.30;99.90
20102;DHT22;10210;52.284;9.892;2022-12-29T07:06:18;13.30;99.90
20102;DHT22;10210;52.284;9.892;2022-12-29T07:08:44;13.30;99.90
20102;DHT22;10210;52.284;9.892;2022-12-29T07:11:10;13.30;99.90
20102;DHT22;10210;52.284;9.892;2022-12-29T07:13:36;13.30;99.90
20102;DHT22;10210;52.284;9.892;2022-12-29T07:16:06;13.30;99.90
20102;DHT22;10210;52.284;9.892;2022-12-29T07:18:32;13.30;99.90
20102;DHT22;10210;52.284;9.892;2022-12-29T07:20:58;13.30;99.90
20102;DHT22;10210;52.284;9.892;2022-12-29T07:23:23;13.30;99.90
20102;DHT22;10210;52.284;9.892;2022-12-29T07:25:49;13.40;99.90
20102;DHT22;10210;52.284;9.892;2022-12-29T07:28:16;13.40;99.90
20102;DHT22;10210;52.284;9.892;2022-12-29T07:30:41;13.50;99.90
20102;DHT22;10210;52.284;9.892;2022-12-29T07:33:07;13.50;99.90
20102;DHT22;10210;52.284;9.892;2022-12-29T07:35:35;13.50;99.90
20102;DHT22;10210;52.284;9.892;2022-12-29T07:38:01;13.60;99.90
20102;DHT22;10210;52.284;9.892;2022-12-29T07:40:26;13.60;99.90
20102;DHT22;10210;52.284;9.892;2022-12-29T07:42:52;13.60;99.90
20102;DHT22;10210;52.284;9.892;2022-12-29T07:45:18;13.70;99.90
20102;DHT22;10210;52.284;9.892;2022-12-29T07:47:47;13.70;99.90
20102;DHT22;10210;52.284;9.892;2022-12-29T07:50:14;13.80;99.90
20102;DHT22;10210;52.284;9.892;2022-12-29T07:52:40;13.80;99.90
20102;DHT22;10210;52.284;9.892;2022-12-29T07:55:06;13.80;99.90
20102;DHT22;10210;52.284;9.892;2022-12-29T07:57:32;13.80;99.90
20102;DHT22;10210;52.284;9.892;2022-12-29T07:59:58;13.80;99.90
20102;DHT22;10210;52.284;9.892;2022-12-29T08:02:23;13.90;99.90
20102;DHT22;10210;52.284;9.892;2022-12-29T08:04:51;13.90;99.90
20102;DHT22;10210;52.284;9.892;2022-12-29T08:07:17;13.90;99.90
20102;DHT22;10210;52.284;9.892;2022-12-29T08:09:42;13.90;99.90
20102;DHT22;10210;52.284;9.892;2022-12-29T08:12:12;13.90;99.90
20102;DHT22;10210;52.284;9.892;2022-12-29T08:14:37;13.90;99.90
20102;DHT22;10210;52.284;9.892;2022-12-29T08:17:03;13.90;99.90
20102;DHT22;10210;52.284;9.892;2022-12-29T08:19:29;13.80;99.90
20102;DHT22;10210;52.284;9.892;2022-12-29T08:21:54;13.80;99.90
20102;DHT22;10210;52.284;9.892;2022-12-29T08:24:20;13.80;99.90
20102;DHT22;10210;52.284;9.892;2022-12-29T08:26:46;13.70;99.90
20102;DHT22;10210;52.284;9.892;2022-12-29T08:29:11;13.70;99.90
20102;DHT22;10210;52.284;9.892;2022-12-29T08:31:37;13.80;99.90
20102;DHT22;10210;52.284;9.892;2022-12-29T08:34:03;13.80;99.90
20102;DHT22;10210;52.284;9.892;2022-12-29T08:36:29;13.80;99.90
20102;DHT22;10210;52.284;9.892;2022-12-29T08:38:56;13.60;99.90
20102;DHT22;10210;52.284;9.892;2022-12-29T08:41:22;13.70;99.90
20102;DHT22;10210;52.284;9.892;2022-12-29T08:43:48;13.60;99.90
20102;DHT22;10210;52.284;9.892;2022-12-29T08:46:16;13.50;99.90
20102;DHT22;10210;52.284;9.892;2022-12-29T08:48:42;13.40;99.90
20102;DHT22;10210;52.284;9.892;2022-12-29T08:51:08;13.40;99.90
20102;DHT22;10210;52.284;9.892;2022-12-29T08:53:34;13.20;99.90
20102;DHT22;10210;52.284;9.892;2022-12-29T08:56:00;13.10;99.90
20102;DHT22;10210;52.284;9.892;2022-12-29T08:58:27;13.00;99.90
20102;DHT22;10210;52.284;9.892;2022-12-29T09:00:54;12.90;99.90
20102;DHT22;10210;52.284;9.892;2022-12-29T09:03:21;12.80;99.90
20102;DHT22;10210;52.284;9.892;2022-12-29T09:05:51;12.70;99.90
20102;DHT22;10210;52.284;9.892;2022-12-29T09:08:18;12.70;99.90
20102;DHT22;10210;52.284;9.892;2022-12-29T09:10:44;12.60;99.90
20102;DHT22;10210;52.284;9.892;2022-12-29T09:13:11;12.60;99.90
20102;DHT22;10210;52.284;9.892;2022-12-29T09:15:38;12.60;99.90
20102;DHT22;10210;52.284;9.892;2022-12-29T09:18:05;12.60;99.90
20102;DHT22;10210;52.284;9.892;2022-12-29T09:20:32;12.50;99.90
20102;DHT22;10210;52.284;9.892;2022-12-29T09:22:59;12.60;99.90
20102;DHT22;10210;52.284;9.892;2022-12-29T09:25:25;12.60;99.90
20102;DHT22;10210;52.284;9.892;2022-12-29T09:27:51;12.60;99.90
20102;DHT22;10210;52.284;9.892;2022-12-29T09:30:20;12.50;99.90
20102;DHT22;10210;52.284;9.892;2022-12-29T09:32:48;12.60;99.90
20102;DHT22;10210;52.284;9.892;2022-12-29T09:35:15;12.50;99.90
20102;DHT22;10210;52.284;9.892;2022-12-29T09:37:42;12.60;99.90
20102;DHT22;10210;52.284;9.892;2022-12-29T09:40:27;12.50;99.90
20102;DHT22;10210;52.284;9.892;2022-12-29T09:46:23;12.60;99.90
20102;DHT22;10210;52.284;9.892;2022-12-29T09:52:23;12.60;99.90
20102;DHT22;10210;52.284;9.892;2022-12-29T09:55:10;12.60;99.90
20102;DHT22;10210;52.284;9.892;2022-12-29T09:57:45;12.60;99.90
20102;DHT22;10210;52.284;9.892;2022-12-29T10:00:19;12.60;99.90
20102;DHT22;10210;52.284;9.892;2022-12-29T10:02:54;12.70;99.90
20102;DHT22;10210;52.284;9.892;2022-12-29T10:05:35;12.70;99.90
20102;DHT22;10210;52.284;9.892;2022-12-29T10:08:44;12.70;99.90
20102;DHT22;10210;52.284;9.892;2022-12-29T10:20:45;12.90;99.90
20102;DHT22;10210;52.284;9.892;2022-12-29T10:23:25;13.00;99.90
20102;DHT22;10210;52.284;9.892;2022-12-29T10:25:59;13.00;99.90
20102;DHT22;10210;52.284;9.892;2022-12-29T10:28:41;13.10;99.90
20102;DHT22;10210;52.284;9.892;2022-12-29T10:31:37;13.00;99.90
20102;DHT22;10210;52.284;9.892;2022-12-29T10:34:24;13.00;99.90
20102;DHT22;10210;52.284;9.892;2022-12-29T10:36:57;12.90;99.90
20102;DHT22;10210;52.284;9.892;2022-12-29T10:39:32;12.90;99.90
20102;DHT22;10210;52.284;9.892;2022-12-29T10:42:09;12.90;99.90
20102;DHT22;10210;52.284;9.892;2022-12-29T10:44:40;12.80;99.90
20102;DHT22;10210;52.284;9.892;2022-12-29T10:47:18;12.80;99.90
20102;DHT22;10210;52.284;9.892;2022-12-29T10:49:47;12.80;99.90
20102;DHT22;10210;52.284;9.892;2022-12-29T10:52:15;12.80;99.90
20102;DHT22;10210;52.284;9.892;2022-12-29T10:55:06;12.80;99.90
20102;DHT22;10210;52.284;9.892;2022-12-29T10:57:41;12.90;99.90
20102;DHT22;10210;52.284;9.892;2022-12-29T11:02:45;12.90;99.90
20102;DHT22;10210;52.284;9.892;2022-12-29T11:08:28;13.00;99.90
20102;DHT22;10210;52.284;9.892;2022-12-29T11:11:01;13.00;99.90
20102;DHT22;10210;52.284;9.892;2022-12-29T11:13:31;13.10;99.90
20102;DHT22;10210;52.284;9.892;2022-12-29T11:15:59;13.10;99.90
20102;DHT22;10210;52.284;9.892;2022-12-29T11:18:31;13.20;99.90
20102;DHT22;10210;52.284;9.892;2022-12-29T11:21:23;13.20;99.90
20102;DHT22;10210;52.284;9.892;2022-12-29T11:24:04;13.30;99.90
20102;DHT22;10210;52.284;9.892;2022-12-29T11:26:32;13.20;99.90
20102;DHT22;10210;52.284;9.892;2022-12-29T11:31:47;13.20;99.90
20102;DHT22;10210;52.284;9.892;2022-12-29T11:34:21;13.20;99.90
20102;DHT22;10210;52.284;9.892;2022-12-29T11:37:06;13.30;99.90
20102;DHT22;10210;52.284;9.892;2022-12-29T11:42:28;13.30;99.90
20102;DHT22;10210;52.284;9.892;2022-12-29T11:45:23;13.30;99.90
20102;DHT22;10210;52.284;9.892;2022-12-29T11:48:09;13.40;99.90
20102;DHT22;10210;52.284;9.892;2022-12-29T11:50:50;13.40;99.90
20102;DHT22;10210;52.284;9.892;2022-12-29T11:56:15;13.40;99.90
20102;DHT22;10210;52.284;9.892;2022-12-29T11:58:45;13.40;99.90
20102;DHT22;10210;52.284;9.892;2022-12-29T12:01:31;13.50;99.90
20102;DHT22;10210;52.284;9.892;2022-12-29T12:04:23;13.50;99.90
20102;DHT22;10210;52.284;9.892;2022-12-29T12:07:02;13.60;99.90
20102;DHT22;10210;52.284;9.892;2022-12-29T12:09:50;13.60;99.90
20102;DHT22;10210;52.284;9.892;2022-12-29T12:12:28;13.60;99.90
20102;DHT22;10210;52.284;9.892;2022-12-29T12:14:59;13.70;99.90
20102;DHT22;10210;52.284;9.892;2022-12-29T12:17:41;13.80;99.90
20102;DHT22;10210;52.284;9.892;2022-12-29T12:20:19;13.80;99.90
20102;DHT22;10210;52.284;9.892;2022-12-29T12:23:19;13.70;99.90
20102;DHT22;10210;52.284;9.892;2022-12-29T12:26:15;13.80;99.90
20102;DHT22;10210;52.284;9.892;2022-12-29T12:28:52;13.80;99.90
20102;DHT22;10210;52.284;9.892;2022-12-29T12:34:14;13.70;99.90
20102;DHT22;10210;52.284;9.892;2022-12-29T12:57:40;13.60;99.90
20102;DHT22;10210;52.284;9.892;2022-12-29T13:00:19;13.60;99.90
20102;DHT22;10210;52.284;9.892;2022-12-29T13:03:12;13.60;99.90
20102;DHT22;10210;52.284;9.892;2022-12-29T13:06:04;13.60;99.90
20102;DHT22;10210;52.284;9.892;2022-12-29T13:09:05;13.60;99.90
20102;DHT22;10210;52.284;9.892;2022-12-29T13:14:42;13.60;99.90
20102;DHT22;10210;52.284;9.892;2022-12-29T13:26:31;13.50;99.90
20102;DHT22;10210;52.284;9.892;2022-12-29T13:29:05;13.60;99.90
20102;DHT22;10210;52.284;9.892;2022-12-29T13:37:49;13.50;99.90
20102;DHT22;10210;52.284;9.892;2022-12-29T13:40:24;13.60;99.90
20102;DHT22;10210;52.284;9.892;2022-12-29T13:42:52;13.60;99.90
20102;DHT22;10210;52.284;9.892;2022-12-29T13:45:23;13.60;99.90
20102;DHT22;10210;52.284;9.892;2022-12-29T13:48:05;13.60;99.90
20102;DHT22;10210;52.284;9.892;2022-12-29T13:50:38;13.60;99.90
20102;DHT22;10210;52.284;9.892;2022-12-29T13:56:43;13.60;99.90
20102;DHT22;10210;52.284;9.892;2022-12-29T13:59:50;13.60;99.90
20102;DHT22;10210;52.284;9.892;2022-12-29T14:05:40;13.60;99.90
20102;DHT22;10210;52.284;9.892;2022-12-29T14:08:16;13.60;99.90
20102;DHT22;10210;52.284;9.892;2022-12-29T14:10:48;13.50;99.90
20102;DHT22;10210;52.284;9.892;2022-12-29T14:13:20;13.60;99.90
20102;DHT22;10210;52.284;9.892;2022-12-29T14:15:56;13.60;99.90
20102;DHT22;10210;52.284;9.892;2022-12-29T14:18:28;13.60;99.90
20102;DHT22;10210;52.284;9.892;2022-12-29T14:23:44;13.50;99.90
20102;DHT22;10210;52.284;9.892;2022-12-29T14:28:55;13.50;99.90
20102;DHT22;10210;52.284;9.892;2022-12-29T14:36:37;13.40;99.90
20102;DHT22;10210;52.284;9.892;2022-12-29T14:39:30;13.50;99.90
20102;DHT22;10210;52.284;9.892;2022-12-29T14:44:58;13.50;99.90
20102;DHT22;10210;52.284;9.892;2022-12-29T14:47:40;13.50;99.90
20102;DHT22;10210;52.284;9.892;2022-12-29T14:50:22;13.50;99.90
20102;DHT22;10210;52.284;9.892;2022-12-29T14:52:59;13.50;99.90
20102;DHT22;10210;52.284;9.892;2022-12-29T14:58:28;13.50;99.90
20102;DHT22;10210;52.284;9.892;2022-12-29T15:00:58;13.50;99.90
20102;DHT22;10210;52.284;9.892;2022-12-29T15:03:45;13.50;99.90
20102;DHT22;10210;52.284;9.892;2022-12-29T15:06:18;13.50;99.90
20102;DHT22;10210;52.284;9.892;2022-12-29T15:09:00;13.40;99.90
20102;DHT22;10210;52.284;9.892;2022-12-29T15:14:02;13.30;99.90
20102;DHT22;10210;52.284;9.892;2022-12-29T15:16:31;13.30;99.90
20102;DHT22;10210;52.284;9.892;2022-12-29T15:18:59;13.30;99.90
20102;DHT22;10210;52.284;9.892;2022-12-29T15:21:29;13.20;99.90
20102;DHT22;10210;52.284;9.892;2022-12-29T15:23:57;13.20;99.90
20102;DHT22;10210;52.284;9.892;2022-12-29T15:26:23;13.30;99.90
20102;DHT22;10210;52.284;9.892;2022-12-29T15:29:00;13.20;99.90
20102;DHT22;10210;52.284;9.892;2022-12-29T15:31:26;13.20;99.90
20102;DHT22;10210;52.284;9.892;2022-12-29T15:33:53;13.20;99.90
20102;DHT22;10210;52.284;9.892;2022-12-29T15:36:28;13.20;99.90
20102;DHT22;10210;52.284;9.892;2022-12-29T15:39:27;13.20;99.90
20102;DHT22;10210;52.284;9.892;2022-12-29T15:44:46;13.10;99.90
20102;DHT22;10210;52.284;9.892;2022-12-29T15:47:24;13.10;99.90
20102;DHT22;10210;52.284;9.892;2022-12-29T15:50:07;13.00;99.90
20102;DHT22;10210;52.284;9.892;2022-12-29T15:52:39;13.00;99.90
20102;DHT22;10210;52.284;9.892;2022-12-29T15:55:06;13.00;99.90
20102;DHT22;10210;52.284;9.892;2022-12-29T15:58:00;12.90;99.90
20102;DHT22;10210;52.284;9.892;2022-12-29T16:00:32;12.90;99.90
20102;DHT22;10210;52.284;9.892;2022-12-29T16:03:03;12.90;99.90
20102;DHT22;10210;52.284;9.892;2022-12-29T16:05:36;12.80;99.90
20102;DHT22;10210;52.284;9.892;2022-12-29T16:08:36;12.80;99.90
20102;DHT22;10210;52.284;9.892;2022-12-29T16:11:21;12.80;99.90
20102;DHT22;10210;52.284;9.892;2022-12-29T16:14:18;12.80;99.90
20102;DHT22;10210;52.284;9.892;2022-12-29T16:16:47;12.80;99.90
20102;DHT22;10210;52.284;9.892;2022-12-29T16:19:34;12.70;99.90
20102;DHT22;10210;52.284;9.892;2022-12-29T16:22:04;12.70;99.90
20102;DHT22;10210;52.284;9.892;2022-12-29T16:24:38;12.70;99.90
20102;DHT22;10210;52.284;9.892;2022-12-29T16:27:21;12.60;99.90
20102;DHT22;10210;52.284;9.892;2022-12-29T16:29:54;12.60;99.90
20102;DHT22;10210;52.284;9.892;2022-12-29T16:32:31;12.60;99.90
20102;DHT22;10210;52.284;9.892;2022-12-29T16:35:10;12.60;99.90
20102;DHT22;10210;52.284;9.892;2022-12-29T16:37:36;12.60;99.90
20102;DHT22;10210;52.284;9.892;2022-12-29T16:42:48;12.50;99.90
20102;DHT22;10210;52.284;9.892;2022-12-29T16:48:25;12.50;99.90
20102;DHT22;10210;52.284;9.892;2022-12-29T16:50:52;12.50;99.90
20102;DHT22;10210;52.284;9.892;2022-12-29T16:53:38;12.50;99.90
20102;DHT22;10210;52.284;9.892;2022-12-29T16:56:17;12.50;99.90
20102;DHT22;10210;52.284;9.892;2022-12-29T16:58:51;12.50;99.90
20102;DHT22;10210;52.284;9.892;2022-12-29T17:01:26;12.50;99.90
20102;DHT22;10210;52.284;9.892;2022-12-29T17:03:56;12.50;99.90
20102;DHT22;10210;52.284;9.892;2022-12-29T17:06:25;12.50;99.90
20102;DHT22;10210;52.284;9.892;2022-12-29T17:08:51;12.60;99.90
20102;DHT22;10210;52.284;9.892;2022-12-29T17:11:23;12.60;99.90
20102;DHT22;10210;52.284;9.892;2022-12-29T17:14:27;12.60;99.90
20102;DHT22;10210;52.284;9.892;2022-12-29T17:17:13;12.60;99.90
20102;DHT22;10210;52.284;9.892;2022-12-29T17:19:45;12.60;99.90
20102;DHT22;10210;52.284;9.892;2022-12-29T17:22:16;12.60;99.90
20102;DHT22;10210;52.284;9.892;2022-12-29T17:24:44;12.60;99.90
20102;DHT22;10210;52.284;9.892;2022-12-29T17:27:23;12.60;99.90
20102;DHT22;10210;52.284;9.892;2022-12-29T17:29:53;12.50;99.90
20102;DHT22;10210;52.284;9.892;2022-12-29T17:32:21;12.50;99.90
20102;DHT22;10210;52.284;9.892;2022-12-29T17:34:47;12.50;99.90
20102;DHT22;10210;52.284;9.892;2022-12-29T17:37:28;12.50;99.90
20102;DHT22;10210;52.284;9.892;2022-12-29T17:39:56;12.40;99.90
20102;DHT22;10210;52.284;9.892;2022-12-29T17:42:22;12.40;99.90
20102;DHT22;10210;52.284;9.892;2022-12-29T17:44:48;12.40;99.90
20102;DHT22;10210;52.284;9.892;2022-12-29T17:47:14;12.40;99.90
20102;DHT22;10210;52.284;9.892;2022-12-29T17:49:40;12.30;99.90
20102;DHT22;10210;52.284;9.892;2022-12-29T17:52:13;12.40;99.90
20102;DHT22;10210;52.284;9.892;2022-12-29T17:54:45;12.40;99.90
20102;DHT22;10210;52.284;9.892;2022-12-29T17:57:15;12.30;99.90
20102;DHT22;10210;52.284;9.892;2022-12-29T17:59:42;12.30;99.90
20102;DHT22;10210;52.284;9.892;2022-12-29T18:04:52;12.30;99.90
20102;DHT22;10210;52.284;9.892;2022-12-29T18:07:18;12.30;99.90
20102;DHT22;10210;52.284;9.892;2022-12-29T18:09:43;12.30;99.90
20102;DHT22;10210;52.284;9.892;2022-12-29T18:14:51;12.30;99.90
20102;DHT22;10210;52.284;9.892;2022-12-29T18:17:17;12.30;99.90
20102;DHT22;10210;52.284;9.892;2022-12-29T18:19:42;12.30;99.90
20102;DHT22;10210;52.284;9.892;2022-12-29T18:22:08;12.30;99.90
20102;DHT22;10210;52.284;9.892;2022-12-29T18:24:33;12.30;99.90
20102;DHT22;10210;52.284;9.892;2022-12-29T18:26:59;12.40;99.90
20102;DHT22;10210;52.284;9.892;2022-12-29T18:29:33;12.30;99.90
20102;DHT22;10210;52.284;9.892;2022-12-29T18:31:59;12.40;99.90
20102;DHT22;10210;52.284;9.892;2022-12-29T18:34:25;12.30;99.90